ADDS METAR Data

Data at: 2048 UTC 15 Aug 2018

METAR for:KISP (Islip/Macarthur Arpt, NY, US)
Text:KISP 151956Z 28011KT 10SM FEW045 31/20 A2989 RMK AO2 SLP121 T03060200
Temperature: 30.6°C ( 87°F)
Dewpoint: 20.0°C ( 68°F) [RH = 53%]
Pressure (altimeter):29.89 inches Hg (1012.3 mb) [Sea level pressure: 1012.1 mb]
Winds:from the W (280 degrees) at 13 MPH (11 knots; 5.7 m/s)
Visibility:10 or more sm (16+ km)
Ceiling:at least 12,000 feet AGL
Clouds: few clouds at 4500 feet AGL